Terminal Aerodrome Forecast
Issued by NWS

Home | Current Version | Previous Version | Text Only | Print | Product List | Glossary On
Versions: 1 2 3 4 5 6 7 8 9 10 11 12 13 14 15 16
000
FTUS45 KREV 241724
TAFMMH
TAF
KMMH 241724Z 2418/2518 26018G32KT P6SM BKN045 OVC060
     FM242100 27020G34KT P6SM VCSH BKN080 OVC120
     FM250400 29016G28KT P6SM SCT080 BKN120
     FM250700 30010KT P6SM SCT080=

USA.gov is the U.S. government's official web portal to all federal, state and local government web resources and services.